Sankuniki — JD2465 — position and weather

sailwx.info

Track history (hours):
 
Tides and Currents Weather Stations Pressure Air Temp Water Temp Dewpoint Dewpoint Depression Visibility Wind Speed Wind Dir Waves Ship Positions

Sankuniki

Last reported at 2017-May-22 12:24 UTC. Time now 2017-May-24 02:24 UTC.
Position N 34°57' E 139°44'.

Length 71 m; draft 4 m.

Type: Cargo ship. MMSI: 431000269.

Date/timePositionNaut miles runAvg speedWind from/ knotsBaromVisibWave heightAir tempDewpointWater temp
2017-May-22 12:24N 34°57' E 139°44'512.7
2017-May-22 12:00N 35°02' E 139°43'612.7
2017-May-22 11:30N 35°08' E 139°45'611.9
2017-May-22 11:00N 35°14' E 139°46'611.9
2017-May-22 10:30N 35°19' E 139°43'611.7
2017-May-22 10:00N 35°25' E 139°44'612.6
2017-May-22 09:30N 35°29' E 139°50'5 9.5
2017-May-22 09:00N 35°34' E 139°50'4 8.7
2017-May-22 08:30N 35°37' E 139°46'2 0.2
2017-May-21 23:13N 35°39' E 139°46'0 0.0
2017-May-21 22:55N 35°39' E 139°46'0 0.0
2017-May-21 22:28N 35°39' E 139°46'0 0.0
2017-May-21 21:58N 35°39' E 139°46'0 0.0
2017-May-21 20:55N 35°39' E 139°46'0 0.0
2017-May-21 20:28N 35°39' E 139°46'0 0.0
2017-May-21 13:43N 35°39' E 139°46'0 0.0
2017-May-21 12:49N 35°39' E 139°46'0 0.0
2017-May-21 11:07N 35°39' E 139°46'0 0.0
2017-May-21 10:55N 35°39' E 139°46'0 0.0
2017-May-21 10:25N 35°39' E 139°46'0 0.0
2017-May-21 09:37N 35°39' E 139°46'0 0.0
2017-May-21 09:25N 35°39' E 139°46'0 0.0
2017-May-21 08:49N 35°39' E 139°46'0 0.0
2017-May-21 02:55N 35°39' E 139°46'0 0.0
2017-May-21 02:13N 35°39' E 139°46'0 0.0
2017-May-21 01:55N 35°39' E 139°46'0 0.0
2017-May-21 01:22N 35°39' E 139°46'0 0.0
2017-May-21 00:55N 35°39' E 139°46'0 0.0
2017-May-21 00:28N 35°39' E 139°46'0 0.0
2017-May-20 23:59N 35°39' E 139°46'2 5.0
2017-May-20 23:30N 35°36' E 139°47'4 5.9
2017-May-20 22:55N 35°34' E 139°50'0 0.0
2017-May-20 22:01N 35°34' E 139°50'0 0.0
2017-May-20 21:58N 35°34' E 139°50'0 0.0
2017-May-20 20:40N 35°34' E 139°50'0 0.0
2017-May-20 20:25N 35°34' E 139°50'0 0.0
2017-May-20 19:01N 35°34' E 139°50'0 0.0
2017-May-20 18:58N 35°34' E 139°50'0 0.0
2017-May-20 18:28N 35°34' E 139°50'0 0.0
2017-May-20 16:49N 35°34' E 139°50'0 0.2
2017-May-20 16:30N 35°34' E 139°50'5 9.5
2017-May-20 16:00N 35°30' E 139°52'612.1
2017-May-20 15:30N 35°25' E 139°48'612.5
2017-May-20 15:00N 35°20' E 139°44'1411.6
2017-May-20 13:49N 35°06' E 139°44'  
2017-May-16 23:45N 34°37' E 134°55'510.7
2017-May-16 23:16N 34°37' E 135°01'2 9.1
2017-May-16 23:00N 34°37' E 135°04'611.6
2017-May-16 22:30N 34°37' E 135°11'3 5.0
2017-May-16 21:58N 34°37' E 135°14'0 0.0
2017-May-16 21:30N 34°37' E 135°14'2 4.4
2017-May-16 21:00N 34°36' E 135°12'510.9
2017-May-16 20:30N 34°34' E 135°06'510.7
2017-May-16 20:00N 34°29' E 135°04'510.9
2017-May-16 19:30N 34°23' E 135°02'  
Track history (hours):
 
Tides and Currents Weather Stations Pressure Air Temp Water Temp Dewpoint Dewpoint Depression Visibility Wind Speed Wind Dir Waves Ship Positions

Sankuniki

Last reported at 2017-May-22 12:24 UTC. Time now 2017-May-24 02:24 UTC.
Position N 34°57' E 139°44'.

Length 71 m; draft 4 m.

Type: Cargo ship. MMSI: 431000269.

Date/timePositionNaut miles runAvg speedWind from/ knotsBaromVisibWave heightAir tempDewpointWater temp
2017-May-22 12:24N 34°57' E 139°44'512.7
2017-May-22 12:00N 35°02' E 139°43'612.7
2017-May-22 11:30N 35°08' E 139°45'611.9
2017-May-22 11:00N 35°14' E 139°46'611.9
2017-May-22 10:30N 35°19' E 139°43'611.7
2017-May-22 10:00N 35°25' E 139°44'612.6
2017-May-22 09:30N 35°29' E 139°50'5 9.5
2017-May-22 09:00N 35°34' E 139°50'4 8.7
2017-May-22 08:30N 35°37' E 139°46'2 0.2
2017-May-21 23:13N 35°39' E 139°46'0 0.0
2017-May-21 22:55N 35°39' E 139°46'0 0.0
2017-May-21 22:28N 35°39' E 139°46'0 0.0
2017-May-21 21:58N 35°39' E 139°46'0 0.0
2017-May-21 20:55N 35°39' E 139°46'0 0.0
2017-May-21 20:28N 35°39' E 139°46'0 0.0
2017-May-21 13:43N 35°39' E 139°46'0 0.0
2017-May-21 12:49N 35°39' E 139°46'0 0.0
2017-May-21 11:07N 35°39' E 139°46'0 0.0
2017-May-21 10:55N 35°39' E 139°46'0 0.0
2017-May-21 10:25N 35°39' E 139°46'0 0.0
2017-May-21 09:37N 35°39' E 139°46'0 0.0
2017-May-21 09:25N 35°39' E 139°46'0 0.0
2017-May-21 08:49N 35°39' E 139°46'0 0.0
2017-May-21 02:55N 35°39' E 139°46'0 0.0
2017-May-21 02:13N 35°39' E 139°46'0 0.0
2017-May-21 01:55N 35°39' E 139°46'0 0.0
2017-May-21 01:22N 35°39' E 139°46'0 0.0
2017-May-21 00:55N 35°39' E 139°46'0 0.0
2017-May-21 00:28N 35°39' E 139°46'0 0.0
2017-May-20 23:59N 35°39' E 139°46'2 5.0
2017-May-20 23:30N 35°36' E 139°47'4 5.9
2017-May-20 22:55N 35°34' E 139°50'0 0.0
2017-May-20 22:01N 35°34' E 139°50'0 0.0
2017-May-20 21:58N 35°34' E 139°50'0 0.0
2017-May-20 20:40N 35°34' E 139°50'0 0.0
2017-May-20 20:25N 35°34' E 139°50'0 0.0
2017-May-20 19:01N 35°34' E 139°50'0 0.0
2017-May-20 18:58N 35°34' E 139°50'0 0.0
2017-May-20 18:28N 35°34' E 139°50'0 0.0
2017-May-20 16:49N 35°34' E 139°50'0 0.2
2017-May-20 16:30N 35°34' E 139°50'5 9.5
2017-May-20 16:00N 35°30' E 139°52'612.1
2017-May-20 15:30N 35°25' E 139°48'612.5
2017-May-20 15:00N 35°20' E 139°44'1411.6
2017-May-20 13:49N 35°06' E 139°44'  
2017-May-16 23:45N 34°37' E 134°55'510.7
2017-May-16 23:16N 34°37' E 135°01'2 9.1
2017-May-16 23:00N 34°37' E 135°04'611.6
2017-May-16 22:30N 34°37' E 135°11'3 5.0
2017-May-16 21:58N 34°37' E 135°14'0 0.0
2017-May-16 21:30N 34°37' E 135°14'2 4.4
2017-May-16 21:00N 34°36' E 135°12'510.9
2017-May-16 20:30N 34°34' E 135°06'510.7
2017-May-16 20:00N 34°29' E 135°04'510.9
2017-May-16 19:30N 34°23' E 135°02'  

Dump ship's entire track history